sensor_id;sensor_type;location;lat;lon;timestamp;pressure;altitude;pressure_sealevel;temperature;humidity
68994;BME280;56054;50.968;5.816;2023-03-23T06:41:13;99586.34;;;12.13;100.00
68994;BME280;56054;50.968;5.816;2023-03-23T06:44:52;99585.50;;;12.14;100.00
68994;BME280;56054;50.968;5.816;2023-03-23T06:48:42;99596.09;;;12.18;100.00
68994;BME280;56054;50.968;5.816;2023-03-23T06:51:58;99583.16;;;12.20;100.00
68994;BME280;56054;50.968;5.816;2023-03-23T06:55:06;99575.44;;;12.23;100.00
68994;BME280;56054;50.968;5.816;2023-03-23T06:58:16;99591.94;;;12.24;100.00
68994;BME280;56054;50.968;5.816;2023-03-23T07:01:22;99584.31;;;12.28;100.00
68994;BME280;56054;50.968;5.816;2023-03-23T07:04:33;99593.94;;;12.29;100.00
68994;BME280;56054;50.968;5.816;2023-03-23T07:08:06;99597.50;;;12.33;100.00
68994;BME280;56054;50.968;5.816;2023-03-23T07:11:19;99579.34;;;12.34;100.00
68994;BME280;56054;50.968;5.816;2023-03-23T07:14:56;99575.03;;;12.35;100.00
68994;BME280;56054;50.968;5.816;2023-03-23T07:18:04;99578.50;;;12.35;100.00
68994;BME280;56054;50.968;5.816;2023-03-23T07:21:20;99578.63;;;12.38;100.00
68994;BME280;56054;50.968;5.816;2023-03-23T07:24:28;99583.03;;;12.41;100.00
68994;BME280;56054;50.968;5.816;2023-03-23T07:27:48;99572.69;;;12.42;100.00
68994;BME280;56054;50.968;5.816;2023-03-23T07:30:56;99581.53;;;12.46;100.00
68994;BME280;56054;50.968;5.816;2023-03-23T07:34:03;99583.38;;;12.49;100.00
68994;BME280;56054;50.968;5.816;2023-03-23T07:37:23;99579.06;;;12.51;100.00
68994;BME280;56054;50.968;5.816;2023-03-23T07:41:05;99594.00;;;12.55;100.00
68994;BME280;56054;50.968;5.816;2023-03-23T07:44:16;99598.38;;;12.56;100.00
68994;BME280;56054;50.968;5.816;2023-03-23T07:47:49;99588.00;;;12.57;100.00
68994;BME280;56054;50.968;5.816;2023-03-23T07:51:01;99599.38;;;12.59;100.00
68994;BME280;56054;50.968;5.816;2023-03-23T07:54:35;99602.16;;;12.64;100.00
68994;BME280;56054;50.968;5.816;2023-03-23T07:57:54;99599.75;;;12.70;100.00
68994;BME280;56054;50.968;5.816;2023-03-23T08:01:06;99604.25;;;12.74;100.00
68994;BME280;56054;50.968;5.816;2023-03-23T08:04:14;99613.03;;;12.76;100.00
68994;BME280;56054;50.968;5.816;2023-03-23T08:07:46;99606.97;;;12.77;100.00
68994;BME280;56054;50.968;5.816;2023-03-23T08:11:17;99619.22;;;12.80;100.00
68994;BME280;56054;50.968;5.816;2023-03-23T08:14:57;99616.50;;;12.77;100.00
68994;BME280;56054;50.968;5.816;2023-03-23T08:18:25;99628.66;;;12.76;100.00
68994;BME280;56054;50.968;5.816;2023-03-23T08:21:34;99625.28;;;12.79;100.00
68994;BME280;56054;50.968;5.816;2023-03-23T08:25:22;99619.28;;;12.81;100.00
68994;BME280;56054;50.968;5.816;2023-03-23T08:29:06;99631.53;;;12.84;100.00
68994;BME280;56054;50.968;5.816;2023-03-23T08:32:50;99628.13;;;12.85;100.00
68994;BME280;56054;50.968;5.816;2023-03-23T08:36:41;99631.59;;;12.85;100.00
68994;BME280;56054;50.968;5.816;2023-03-23T08:40:12;99623.78;;;12.85;100.00
68994;BME280;56054;50.968;5.816;2023-03-23T08:43:57;99635.88;;;12.83;100.00
68994;BME280;56054;50.968;5.816;2023-03-23T08:47:36;99644.47;;;12.81;100.00
68994;BME280;56054;50.968;5.816;2023-03-23T08:50:57;99638.31;;;12.79;100.00
68994;BME280;56054;50.968;5.816;2023-03-23T08:54:28;99644.31;;;12.76;100.00
68994;BME280;56054;50.968;5.816;2023-03-23T08:58:25;99649.44;;;12.75;100.00
68994;BME280;56054;50.968;5.816;2023-03-23T09:02:02;99658.28;;;12.78;100.00
68994;BME280;56054;50.968;5.816;2023-03-23T09:05:40;99661.84;;;12.80;100.00
68994;BME280;56054;50.968;5.816;2023-03-23T09:09:22;99685.47;;;12.85;100.00
68994;BME280;56054;50.968;5.816;2023-03-23T09:12:30;99688.97;;;12.85;100.00
68994;BME280;56054;50.968;5.816;2023-03-23T09:16:05;99686.22;;;12.82;100.00
68994;BME280;56054;50.968;5.816;2023-03-23T09:19:15;99675.47;;;12.73;100.00
68994;BME280;56054;50.968;5.816;2023-03-23T09:22:23;99662.34;;;12.48;100.00
68994;BME280;56054;50.968;5.816;2023-03-23T09:25:40;99671.09;;;12.50;100.00
68994;BME280;56054;50.968;5.816;2023-03-23T09:29:13;99651.25;;;12.53;100.00
68994;BME280;56054;50.968;5.816;2023-03-23T09:32:20;99663.53;;;12.56;100.00
68994;BME280;56054;50.968;5.816;2023-03-23T09:35:34;99663.63;;;12.59;100.00
68994;BME280;56054;50.968;5.816;2023-03-23T09:38:50;99668.88;;;12.60;100.00
68994;BME280;56054;50.968;5.816;2023-03-23T09:49:32;99669.78;;;12.38;100.00
68994;BME280;56054;50.968;5.816;2023-03-23T09:53:00;99676.78;;;12.39;100.00
68994;BME280;56054;50.968;5.816;2023-03-23T09:56:12;99681.94;;;12.38;100.00
68994;BME280;56054;50.968;5.816;2023-03-23T09:59:52;99685.50;;;12.40;100.00
68994;BME280;56054;50.968;5.816;2023-03-23T10:03:21;99702.28;;;11.84;100.00
68994;BME280;56054;50.968;5.816;2023-03-23T10:06:37;99709.28;;;11.64;100.00
68994;BME280;56054;50.968;5.816;2023-03-23T10:09:49;99717.88;;;11.42;100.00
68994;BME280;56054;50.968;5.816;2023-03-23T10:17:23;99737.56;;;11.56;100.00
68994;BME280;56054;50.968;5.816;2023-03-23T10:20:56;99744.75;;;11.42;100.00
68994;BME280;56054;50.968;5.816;2023-03-23T10:24:10;99730.81;;;11.21;100.00
68994;BME280;56054;50.968;5.816;2023-03-23T10:27:33;99724.94;;;11.05;100.00
68994;BME280;56054;50.968;5.816;2023-03-23T10:30:56;99719.66;;;11.23;100.00
68994;BME280;56054;50.968;5.816;2023-03-23T10:34:55;99730.56;;;11.34;100.00
68994;BME280;56054;50.968;5.816;2023-03-23T10:37:47;99731.88;;;11.45;100.00
68994;BME280;56054;50.968;5.816;2023-03-23T10:40:59;99732.53;;;11.40;100.00
68994;BME280;56054;50.968;5.816;2023-03-23T10:44:42;99733.94;;;11.33;100.00
68994;BME280;56054;50.968;5.816;2023-03-23T10:48:24;99745.75;;;11.25;100.00
68994;BME280;56054;50.968;5.816;2023-03-23T10:51:35;99753.41;;;11.22;100.00
68994;BME280;56054;50.968;5.816;2023-03-23T10:54:57;99740.53;;;11.25;100.00
68994;BME280;56054;50.968;5.816;2023-03-23T11:02:02;99736.22;;;11.06;100.00
68994;BME280;56054;50.968;5.816;2023-03-23T11:05:47;99718.78;;;11.03;100.00
68994;BME280;56054;50.968;5.816;2023-03-23T11:12:36;99743.13;;;10.86;100.00
68994;BME280;56054;50.968;5.816;2023-03-23T11:16:08;99737.09;;;10.87;100.00
68994;BME280;56054;50.968;5.816;2023-03-23T11:19:33;99753.84;;;10.93;100.00
68994;BME280;56054;50.968;5.816;2023-03-23T11:22:42;99745.16;;;10.74;100.00
68994;BME280;56054;50.968;5.816;2023-03-23T11:25:58;99739.13;;;10.75;100.00
68994;BME280;56054;50.968;5.816;2023-03-23T11:29:44;99736.50;;;10.92;100.00
68994;BME280;56054;50.968;5.816;2023-03-23T11:33:00;99728.75;;;10.94;100.00
68994;BME280;56054;50.968;5.816;2023-03-23T11:36:12;99713.91;;;11.11;100.00
68994;BME280;56054;50.968;5.816;2023-03-23T11:39:48;99717.41;;;11.11;100.00
68994;BME280;56054;50.968;5.816;2023-03-23T11:42:57;99726.81;;;11.29;100.00
68994;BME280;56054;50.968;5.816;2023-03-23T11:46:25;99727.47;;;11.23;100.00
68994;BME280;56054;50.968;5.816;2023-03-23T11:49:52;99731.31;;;11.12;100.00
68994;BME280;56054;50.968;5.816;2023-03-23T11:56:50;99733.91;;;10.92;100.00
68994;BME280;56054;50.968;5.816;2023-03-23T12:00:23;99728.34;;;11.24;100.00
68994;BME280;56054;50.968;5.816;2023-03-23T12:10:22;99730.56;;;11.34;100.00
68994;BME280;56054;50.968;5.816;2023-03-23T12:17:23;99716.19;;;11.63;100.00
68994;BME280;56054;50.968;5.816;2023-03-23T12:28:09;99721.47;;;12.07;100.00
68994;BME280;56054;50.968;5.816;2023-03-23T12:31:36;99706.34;;;12.19;100.00
68994;BME280;56054;50.968;5.816;2023-03-23T12:38:33;99703.53;;;12.35;100.00
68994;BME280;56054;50.968;5.816;2023-03-23T12:41:55;99704.19;;;12.52;100.00
68994;BME280;56054;50.968;5.816;2023-03-23T12:45:45;99709.00;;;12.64;100.00
68994;BME280;56054;50.968;5.816;2023-03-23T12:49:08;99714.44;;;12.70;100.00
68994;BME280;56054;50.968;5.816;2023-03-23T12:52:32;99713.03;;;12.56;100.00
68994;BME280;56054;50.968;5.816;2023-03-23T12:56:20;99702.94;;;12.65;100.00
68994;BME280;56054;50.968;5.816;2023-03-23T13:06:48;99700.09;;;12.81;100.00
68994;BME280;56054;50.968;5.816;2023-03-23T13:09:58;99699.16;;;12.79;100.00
68994;BME280;56054;50.968;5.816;2023-03-23T13:13:24;99702.50;;;12.75;100.00
68994;BME280;56054;50.968;5.816;2023-03-23T13:24:08;99703.03;;;13.37;100.00
68994;BME280;56054;50.968;5.816;2023-03-23T13:27:15;99704.59;;;13.32;100.00
68994;BME280;56054;50.968;5.816;2023-03-23T13:30:35;99707.78;;;13.25;100.00
68994;BME280;56054;50.968;5.816;2023-03-23T13:34:01;99718.34;;;13.28;100.00
68994;BME280;56054;50.968;5.816;2023-03-23T13:37:31;99729.03;;;13.34;100.00
68994;BME280;56054;50.968;5.816;2023-03-23T13:40:57;99740.22;;;13.32;100.00
68994;BME280;56054;50.968;5.816;2023-03-23T13:50:54;99732.97;;;13.24;100.00
68994;BME280;56054;50.968;5.816;2023-03-23T14:01:15;99729.97;;;13.14;100.00
68994;BME280;56054;50.968;5.816;2023-03-23T14:04:31;99723.31;;;12.98;100.00
68994;BME280;56054;50.968;5.816;2023-03-23T14:12:16;99729.59;;;13.03;100.00
68994;BME280;56054;50.968;5.816;2023-03-23T14:15:37;99707.38;;;13.14;100.00
68994;BME280;56054;50.968;5.816;2023-03-23T14:19:04;99703.16;;;13.18;100.00
68994;BME280;56054;50.968;5.816;2023-03-23T14:22:28;99711.28;;;13.25;100.00
68994;BME280;56054;50.968;5.816;2023-03-23T14:25:36;99702.44;;;13.46;100.00
68994;BME280;56054;50.968;5.816;2023-03-23T14:29:19;99689.91;;;13.87;100.00
68994;BME280;56054;50.968;5.816;2023-03-23T14:32:37;99675.25;;;14.18;100.00
68994;BME280;56054;50.968;5.816;2023-03-23T14:35:44;99655.47;;;14.26;100.00
68994;BME280;56054;50.968;5.816;2023-03-23T14:39:35;99657.72;;;14.42;100.00
68994;BME280;56054;50.968;5.816;2023-03-23T14:43:16;99646.16;;;14.34;100.00
68994;BME280;56054;50.968;5.816;2023-03-23T14:46:25;99655.16;;;14.44;100.00
68994;BME280;56054;50.968;5.816;2023-03-23T14:49:40;99644.38;;;14.33;100.00
68994;BME280;56054;50.968;5.816;2023-03-23T14:53:13;99642.69;;;14.35;100.00
68994;BME280;56054;50.968;5.816;2023-03-23T14:56:34;99631.16;;;14.28;100.00
68994;BME280;56054;50.968;5.816;2023-03-23T14:59:47;99628.41;;;14.24;100.00
68994;BME280;56054;50.968;5.816;2023-03-23T15:02:57;99626.94;;;14.33;100.00
68994;BME280;56054;50.968;5.816;2023-03-23T15:06:16;99614.63;;;14.57;100.00
68994;BME280;56054;50.968;5.816;2023-03-23T15:09:24;99628.56;;;14.57;100.00
68994;BME280;56054;50.968;5.816;2023-03-23T15:12:32;99634.38;;;14.48;100.00
68994;BME280;56054;50.968;5.816;2023-03-23T15:15:40;99641.44;;;14.51;100.00
68994;BME280;56054;50.968;5.816;2023-03-23T15:19:06;99639.59;;;14.48;100.00
68994;BME280;56054;50.968;5.816;2023-03-23T15:22:50;99632.44;;;14.41;100.00
68994;BME280;56054;50.968;5.816;2023-03-23T15:26:24;99620.47;;;14.49;100.00
68994;BME280;56054;50.968;5.816;2023-03-23T15:30:29;99611.06;;;14.54;100.00
68994;BME280;56054;50.968;5.816;2023-03-23T15:33:42;99593.78;;;14.60;100.00
68994;BME280;56054;50.968;5.816;2023-03-23T15:37:00;99595.59;;;14.62;100.00
68994;BME280;56054;50.968;5.816;2023-03-23T15:40:16;99583.34;;;14.60;100.00
68994;BME280;56054;50.968;5.816;2023-03-23T15:43:30;99573.22;;;14.72;99.17
68994;BME280;56054;50.968;5.816;2023-03-23T15:46:52;99574.88;;;14.68;96.80
68994;BME280;56054;50.968;5.816;2023-03-23T15:50:08;99579.97;;;14.64;97.62
68994;BME280;56054;50.968;5.816;2023-03-23T15:53:32;99579.91;;;14.61;94.86
68994;BME280;56054;50.968;5.816;2023-03-23T15:56:40;99573.94;;;14.66;93.13
68994;BME280;56054;50.968;5.816;2023-03-23T15:59:52;99582.41;;;14.58;93.17
68994;BME280;56054;50.968;5.816;2023-03-23T16:03:03;99578.16;;;14.61;91.54
68994;BME280;56054;50.968;5.816;2023-03-23T16:06:23;99576.22;;;14.54;91.92
68994;BME280;56054;50.968;5.816;2023-03-23T16:09:30;99581.44;;;14.54;92.86
68994;BME280;56054;50.968;5.816;2023-03-23T16:12:40;99591.22;;;14.61;91.42
68994;BME280;56054;50.968;5.816;2023-03-23T16:15:57;99592.59;;;14.79;91.15
68994;BME280;56054;50.968;5.816;2023-03-23T16:19:08;99591.84;;;14.84;89.13
68994;BME280;56054;50.968;5.816;2023-03-23T16:22:25;99592.75;;;14.85;90.52
68994;BME280;56054;50.968;5.816;2023-03-23T16:25:33;99604.13;;;14.87;89.11
68994;BME280;56054;50.968;5.816;2023-03-23T16:28:58;99597.16;;;14.87;88.83
68994;BME280;56054;50.968;5.816;2023-03-23T16:32:05;99606.00;;;14.91;88.91
68994;BME280;56054;50.968;5.816;2023-03-23T16:35:18;99603.19;;;14.85;89.92
68994;BME280;56054;50.968;5.816;2023-03-23T16:38:26;99603.97;;;14.81;91.07
68994;BME280;56054;50.968;5.816;2023-03-23T16:41:36;99603.78;;;14.74;91.45
68994;BME280;56054;50.968;5.816;2023-03-23T16:44:43;99605.25;;;14.65;92.78
68994;BME280;56054;50.968;5.816;2023-03-23T16:48:27;99595.44;;;14.56;93.71
68994;BME280;56054;50.968;5.816;2023-03-23T16:51:35;99591.97;;;14.57;93.10
68994;BME280;56054;50.968;5.816;2023-03-23T16:54:42;99593.63;;;14.53;93.03
68994;BME280;56054;50.968;5.816;2023-03-23T16:57:49;99596.25;;;14.53;93.92
68994;BME280;56054;50.968;5.816;2023-03-23T17:01:26;99596.31;;;14.57;93.36
68994;BME280;56054;50.968;5.816;2023-03-23T17:04:44;99595.47;;;14.58;92.02
68994;BME280;56054;50.968;5.816;2023-03-23T17:07:52;99595.31;;;14.53;92.00
68994;BME280;56054;50.968;5.816;2023-03-23T17:11:00;99594.28;;;14.48;91.80
68994;BME280;56054;50.968;5.816;2023-03-23T17:14:07;99594.16;;;14.43;92.94
68994;BME280;56054;50.968;5.816;2023-03-23T17:17:14;99602.91;;;14.44;92.22
68994;BME280;56054;50.968;5.816;2023-03-23T17:20:21;99593.19;;;14.40;92.52
68994;BME280;56054;50.968;5.816;2023-03-23T17:23:31;99604.44;;;14.37;93.08
68994;BME280;56054;50.968;5.816;2023-03-23T17:26:38;99602.63;;;14.36;92.58
68994;BME280;56054;50.968;5.816;2023-03-23T17:29:45;99590.34;;;14.32;93.09
68994;BME280;56054;50.968;5.816;2023-03-23T17:33:00;99595.66;;;14.35;92.49
68994;BME280;56054;50.968;5.816;2023-03-23T17:36:22;99582.50;;;14.32;92.73
68994;BME280;56054;50.968;5.816;2023-03-23T17:39:47;99594.56;;;14.27;93.22
68994;BME280;56054;50.968;5.816;2023-03-23T17:42:56;99586.88;;;14.33;93.24
68994;BME280;56054;50.968;5.816;2023-03-23T17:46:03;99590.22;;;14.27;93.05
68994;BME280;56054;50.968;5.816;2023-03-23T17:49:11;99596.22;;;14.25;93.37
68994;BME280;56054;50.968;5.816;2023-03-23T17:52:57;99586.81;;;14.30;92.31
68994;BME280;56054;50.968;5.816;2023-03-23T17:56:05;99593.69;;;14.28;91.64
68994;BME280;56054;50.968;5.816;2023-03-23T17:59:13;99590.94;;;14.23;92.49
68994;BME280;56054;50.968;5.816;2023-03-23T18:02:20;99579.53;;;14.20;92.75
68994;BME280;56054;50.968;5.816;2023-03-23T18:05:31;99583.75;;;14.16;92.11
68994;BME280;56054;50.968;5.816;2023-03-23T18:08:50;99569.75;;;14.14;92.71
68994;BME280;56054;50.968;5.816;2023-03-23T18:11:58;99566.25;;;14.12;92.47
68994;BME280;56054;50.968;5.816;2023-03-23T18:15:05;99556.59;;;14.09;93.22
68994;BME280;56054;50.968;5.816;2023-03-23T18:18:13;99552.25;;;14.10;92.77
68994;BME280;56054;50.968;5.816;2023-03-23T18:21:20;99553.84;;;14.05;93.16
68994;BME280;56054;50.968;5.816;2023-03-23T18:24:32;99546.69;;;13.99;93.86
68994;BME280;56054;50.968;5.816;2023-03-23T18:27:41;99549.16;;;13.95;94.66
68994;BME280;56054;50.968;5.816;2023-03-23T18:30:48;99543.69;;;13.87;95.40
68994;BME280;56054;50.968;5.816;2023-03-23T18:34:26;99553.31;;;13.88;95.47
68994;BME280;56054;50.968;5.816;2023-03-23T18:37:33;99548.91;;;13.87;95.30
68994;BME280;56054;50.968;5.816;2023-03-23T18:40:45;99541.06;;;13.85;95.19
68994;BME280;56054;50.968;5.816;2023-03-23T18:43:53;99527.06;;;13.83;95.19
68994;BME280;56054;50.968;5.816;2023-03-23T18:47:01;99526.22;;;13.84;95.08
68994;BME280;56054;50.968;5.816;2023-03-23T18:50:17;99536.56;;;13.81;95.50
68994;BME280;56054;50.968;5.816;2023-03-23T18:53:36;99527.78;;;13.78;95.46
68994;BME280;56054;50.968;5.816;2023-03-23T18:56:43;99516.44;;;13.77;95.94
68994;BME280;56054;50.968;5.816;2023-03-23T18:59:50;99516.25;;;13.71;96.45
68994;BME280;56054;50.968;5.816;2023-03-23T19:02:57;99517.88;;;13.67;96.32
68994;BME280;56054;50.968;5.816;2023-03-23T19:06:22;99511.69;;;13.65;97.03
68994;BME280;56054;50.968;5.816;2023-03-23T19:09:30;99516.03;;;13.65;97.50
68994;BME280;56054;50.968;5.816;2023-03-23T19:12:42;99503.13;;;13.68;97.19
68994;BME280;56054;50.968;5.816;2023-03-23T19:15:58;99505.53;;;13.62;97.81
68994;BME280;56054;50.968;5.816;2023-03-23T19:19:06;99515.16;;;13.64;97.49
68994;BME280;56054;50.968;5.816;2023-03-23T19:22:13;99506.41;;;13.62;97.85
68994;BME280;56054;50.968;5.816;2023-03-23T19:25:21;99506.53;;;13.67;97.64
68994;BME280;56054;50.968;5.816;2023-03-23T19:28:46;99491.50;;;13.58;98.11
68994;BME280;56054;50.968;5.816;2023-03-23T19:31:57;99495.88;;;13.59;98.23
68994;BME280;56054;50.968;5.816;2023-03-23T19:35:30;99502.06;;;13.63;97.94
68994;BME280;56054;50.968;5.816;2023-03-23T19:38:51;99496.84;;;13.63;97.76
68994;BME280;56054;50.968;5.816;2023-03-23T19:42:01;99501.25;;;13.65;97.79
68994;BME280;56054;50.968;5.816;2023-03-23T19:49:27;99486.53;;;13.67;97.45
68994;BME280;56054;50.968;5.816;2023-03-23T19:52:34;99479.47;;;13.63;97.44
68994;BME280;56054;50.968;5.816;2023-03-23T19:55:41;99474.06;;;13.57;97.65
68994;BME280;56054;50.968;5.816;2023-03-23T20:02:46;99472.53;;;13.64;97.16
68994;BME280;56054;50.968;5.816;2023-03-23T20:06:01;99461.22;;;13.63;96.15
68994;BME280;56054;50.968;5.816;2023-03-23T20:09:11;99461.53;;;13.74;95.10
68994;BME280;56054;50.968;5.816;2023-03-23T20:12:22;99467.53;;;13.72;94.87
68994;BME280;56054;50.968;5.816;2023-03-23T20:15:31;99456.16;;;13.69;95.21
68994;BME280;56054;50.968;5.816;2023-03-23T20:18:38;99461.28;;;13.66;95.76
68994;BME280;56054;50.968;5.816;2023-03-23T20:21:45;99458.97;;;13.76;94.81
68994;BME280;56054;50.968;5.816;2023-03-23T20:24:52;99466.69;;;13.73;94.58
68994;BME280;56054;50.968;5.816;2023-03-23T20:27:59;99450.22;;;13.75;94.83
68994;BME280;56054;50.968;5.816;2023-03-23T20:31:08;99451.00;;;13.73;94.39
68994;BME280;56054;50.968;5.816;2023-03-23T20:34:16;99443.06;;;13.68;95.19
68994;BME280;56054;50.968;5.816;2023-03-23T20:37:33;99448.19;;;13.65;95.76
68994;BME280;56054;50.968;5.816;2023-03-23T20:40:41;99442.16;;;13.66;94.86
68994;BME280;56054;50.968;5.816;2023-03-23T20:43:48;99445.63;;;13.66;94.69
68994;BME280;56054;50.968;5.816;2023-03-23T20:46:55;99447.31;;;13.64;94.66
68994;BME280;56054;50.968;5.816;2023-03-23T20:50:02;99463.81;;;13.63;94.96
68994;BME280;56054;50.968;5.816;2023-03-23T20:53:11;99469.84;;;13.62;95.33
68994;BME280;56054;50.968;5.816;2023-03-23T20:56:18;99436.59;;;13.55;96.13
68994;BME280;56054;50.968;5.816;2023-03-23T20:59:26;99447.81;;;13.53;96.09
68994;BME280;56054;50.968;5.816;2023-03-23T21:02:40;99444.91;;;13.43;98.04
68994;BME280;56054;50.968;5.816;2023-03-23T21:05:51;99447.50;;;13.42;97.94
68994;BME280;56054;50.968;5.816;2023-03-23T21:09:02;99449.81;;;13.33;100.00
68994;BME280;56054;50.968;5.816;2023-03-23T21:12:09;99446.06;;;13.26;100.00
68994;BME280;56054;50.968;5.816;2023-03-23T21:15:55;99440.72;;;13.21;100.00
68994;BME280;56054;50.968;5.816;2023-03-23T21:19:41;99447.34;;;13.12;100.00
68994;BME280;56054;50.968;5.816;2023-03-23T21:22:57;99435.72;;;13.00;100.00
68994;BME280;56054;50.968;5.816;2023-03-23T21:26:14;99432.00;;;12.94;100.00
68994;BME280;56054;50.968;5.816;2023-03-23T21:29:27;99424.78;;;12.85;100.00
68994;BME280;56054;50.968;5.816;2023-03-23T21:32:35;99418.41;;;12.75;100.00
68994;BME280;56054;50.968;5.816;2023-03-23T21:35:42;99419.94;;;12.70;100.00
68994;BME280;56054;50.968;5.816;2023-03-23T21:39:29;99418.09;;;12.66;100.00
68994;BME280;56054;50.968;5.816;2023-03-23T21:46:39;99411.69;;;12.58;100.00
68994;BME280;56054;50.968;5.816;2023-03-23T21:50:17;99403.59;;;12.49;100.00
68994;BME280;56054;50.968;5.816;2023-03-23T21:53:25;99408.59;;;12.42;100.00
68994;BME280;56054;50.968;5.816;2023-03-23T21:57:08;99390.97;;;12.35;100.00
68994;BME280;56054;50.968;5.816;2023-03-23T22:01:01;99382.03;;;12.27;100.00
68994;BME280;56054;50.968;5.816;2023-03-23T22:04:42;99385.16;;;12.17;100.00
68994;BME280;56054;50.968;5.816;2023-03-23T22:07:57;99387.44;;;12.09;100.00
68994;BME280;56054;50.968;5.816;2023-03-23T22:11:33;99377.81;;;12.07;100.00
68994;BME280;56054;50.968;5.816;2023-03-23T22:14:40;99370.94;;;12.09;100.00
68994;BME280;56054;50.968;5.816;2023-03-23T22:17:47;99361.06;;;11.98;100.00
68994;BME280;56054;50.968;5.816;2023-03-23T22:20:54;99361.28;;;12.05;100.00
68994;BME280;56054;50.968;5.816;2023-03-23T22:24:06;99359.28;;;11.97;100.00
68994;BME280;56054;50.968;5.816;2023-03-23T22:27:14;99354.81;;;11.93;100.00
68994;BME280;56054;50.968;5.816;2023-03-23T22:30:46;99337.28;;;11.89;100.00
68994;BME280;56054;50.968;5.816;2023-03-23T22:33:57;99341.78;;;11.93;100.00
68994;BME280;56054;50.968;5.816;2023-03-23T22:37:32;99327.94;;;11.94;100.00
68994;BME280;56054;50.968;5.816;2023-03-23T22:41:16;99318.06;;;11.86;100.00
68994;BME280;56054;50.968;5.816;2023-03-23T22:44:26;99337.28;;;11.89;100.00
68994;BME280;56054;50.968;5.816;2023-03-23T22:47:36;99302.66;;;11.90;100.00
68994;BME280;56054;50.968;5.816;2023-03-23T22:50:52;99313.88;;;11.89;100.00
68994;BME280;56054;50.968;5.816;2023-03-23T22:54:03;99300.13;;;11.93;100.00
68994;BME280;56054;50.968;5.816;2023-03-23T22:57:38;99295.81;;;11.94;100.00
68994;BME280;56054;50.968;5.816;2023-03-23T23:01:07;99286.34;;;11.96;100.00
68994;BME280;56054;50.968;5.816;2023-03-23T23:04:15;99279.50;;;11.99;100.00
68994;BME280;56054;50.968;5.816;2023-03-23T23:07:27;99279.72;;;12.06;100.00
